createdAt,value
2018-05-07T00:03:04.983Z,3.27
2018-05-07T00:06:11.051Z,3.30
2018-05-07T00:09:17.053Z,3.80
2018-05-07T00:12:23.210Z,3.00
2018-05-07T00:15:29.454Z,4.13
2018-05-07T00:18:35.622Z,2.83
2018-05-07T00:21:41.869Z,3.17
2018-05-07T00:24:47.130Z,3.30
2018-05-07T00:27:52.975Z,3.77
2018-05-07T00:30:58.355Z,3.77
2018-05-07T00:34:04.700Z,3.27
2018-05-07T00:37:10.638Z,3.57
2018-05-07T00:40:16.656Z,3.73
2018-05-07T00:43:22.725Z,2.60
2018-05-07T00:46:28.924Z,3.33
2018-05-07T00:49:35.095Z,2.90
2018-05-07T00:52:41.307Z,3.63
2018-05-07T00:55:47.573Z,3.63
2018-05-07T00:58:52.864Z,3.90
2018-05-07T01:01:59.020Z,3.80
2018-05-07T01:05:05.004Z,3.30
2018-05-07T01:08:10.293Z,3.37
2018-05-07T01:11:16.348Z,3.23
2018-05-07T01:14:22.271Z,3.80
2018-05-07T01:17:28.208Z,3.63
2018-05-07T01:20:34.269Z,3.60
2018-05-07T01:23:40.321Z,4.10
2018-05-07T01:26:46.296Z,3.30
2018-05-07T01:29:52.088Z,3.70
2018-05-07T01:32:57.336Z,3.70
2018-05-07T01:36:03.426Z,3.83
2018-05-07T01:39:09.614Z,3.80
2018-05-07T01:42:15.896Z,4.43
2018-05-07T01:45:22.046Z,3.40
2018-05-07T01:48:28.147Z,4.00
2018-05-07T01:51:34.429Z,3.37
2018-05-07T01:54:40.783Z,3.30
2018-05-07T01:57:46.033Z,5.63
2018-05-07T02:00:52.349Z,4.70
2018-05-07T02:03:57.806Z,3.70
2018-05-07T02:07:03.661Z,5.50
2018-05-07T02:10:09.788Z,3.93
2018-05-07T02:13:15.825Z,3.50
2018-05-07T02:16:22.006Z,3.77
2018-05-07T02:19:28.073Z,4.00
2018-05-07T02:22:34.365Z,3.50
2018-05-07T02:25:40.462Z,4.07
2018-05-07T02:28:46.521Z,4.40
2018-05-07T02:31:52.684Z,4.40
2018-05-07T02:34:58.873Z,4.70
2018-05-07T02:38:04.955Z,4.37
2018-05-07T02:41:10.211Z,4.50
2018-05-07T02:44:16.177Z,4.07
2018-05-07T02:47:22.234Z,4.20
2018-05-07T02:50:29.002Z,3.90
2018-05-07T02:53:36.546Z,4.07
2018-05-07T02:56:41.881Z,4.07
2018-05-07T02:59:48.062Z,4.10
2018-05-07T03:02:54.239Z,4.87
2018-05-07T03:06:00.056Z,4.00
2018-05-07T03:09:06.154Z,4.10
2018-05-07T03:12:12.465Z,4.20
2018-05-07T03:15:18.628Z,4.63
2018-05-07T03:18:24.969Z,4.33
2018-05-07T03:21:31.052Z,4.87
2018-05-07T03:24:37.092Z,4.70
2018-05-07T03:27:43.203Z,4.90
2018-05-07T03:30:49.163Z,5.13
2018-05-07T03:33:54.446Z,4.60
2018-05-07T03:37:00.316Z,5.27
2018-05-07T03:40:06.385Z,5.10
2018-05-07T03:43:12.653Z,4.83
2018-05-07T03:46:18.400Z,5.27
2018-05-07T03:49:24.493Z,5.80
2018-05-07T03:52:30.556Z,5.27
2018-05-07T03:55:36.583Z,4.90
2018-05-07T03:58:42.572Z,4.00
2018-05-07T04:01:48.523Z,4.60
2018-05-07T04:05:02.784Z,5.07
2018-05-07T04:08:09.117Z,4.70
2018-05-07T04:11:15.265Z,5.30
2018-05-07T04:14:21.746Z,5.07
2018-05-07T04:17:39.862Z,5.30
2018-05-07T04:20:57.633Z,5.70
2018-05-07T04:24:15.088Z,5.10
2018-05-07T04:27:21.209Z,4.80
2018-05-07T04:30:27.419Z,4.50
2018-05-07T04:33:33.576Z,4.47
2018-05-07T04:36:39.724Z,5.20
2018-05-07T04:39:45.862Z,4.33
2018-05-07T04:42:51.197Z,5.50
2018-05-07T04:45:57.435Z,4.53
2018-05-07T04:49:03.202Z,4.53
2018-05-07T04:52:09.417Z,4.53
2018-05-07T04:55:15.926Z,4.50
2018-05-07T04:58:22.509Z,4.50
2018-05-07T05:01:28.493Z,3.57
2018-05-07T05:04:34.619Z,4.30
2018-05-07T05:07:40.861Z,4.50
2018-05-07T05:10:46.294Z,5.30
2018-05-07T05:13:52.653Z,5.20
2018-05-07T05:16:59.004Z,4.17
2018-05-07T05:20:05.110Z,5.30
2018-05-07T05:23:11.124Z,4.27
2018-05-07T05:26:26.761Z,4.37
2018-05-07T05:29:33.518Z,4.47
2018-05-07T05:32:39.487Z,3.80
2018-05-07T05:35:45.495Z,4.70
2018-05-07T05:38:51.417Z,4.50
2018-05-07T05:41:57.573Z,4.10
2018-05-07T05:45:03.560Z,4.70
2018-05-07T05:48:09.630Z,4.73
2018-05-07T05:51:14.738Z,4.50
2018-05-07T05:54:20.896Z,4.37
2018-05-07T05:57:26.894Z,4.37
2018-05-07T06:00:32.580Z,4.43
2018-05-07T06:03:38.742Z,4.47
2018-05-07T06:06:44.164Z,4.67
2018-05-07T06:09:50.362Z,5.17
2018-05-07T06:12:56.323Z,4.20
2018-05-07T06:16:02.377Z,5.07
2018-05-07T06:19:08.406Z,5.23
2018-05-07T06:22:13.864Z,6.07
2018-05-07T06:25:19.152Z,5.50
2018-05-07T06:28:25.136Z,5.27
2018-05-07T06:31:31.145Z,4.53
2018-05-07T06:34:37.032Z,5.70
2018-05-07T06:37:43.165Z,6.30
2018-05-07T06:41:08.210Z,5.30
2018-05-07T06:44:14.083Z,5.23
2018-05-07T06:47:19.286Z,4.90
2018-05-07T06:50:25.333Z,4.60
2018-05-07T06:53:31.618Z,4.97
2018-05-07T06:56:37.352Z,5.17
2018-05-07T06:59:43.591Z,4.70
2018-05-07T07:02:49.723Z,5.93
2018-05-07T07:05:55.646Z,5.00
2018-05-07T07:09:01.703Z,4.97
2018-05-07T07:12:07.927Z,6.13
2018-05-07T07:15:13.884Z,4.10
2018-05-07T07:18:19.904Z,4.70
2018-05-07T07:21:25.816Z,4.77
2018-05-07T07:24:32.083Z,4.40
2018-05-07T07:27:38.213Z,4.67
2018-05-07T07:30:43.359Z,4.60
2018-05-07T07:33:48.639Z,4.70
2018-05-07T07:36:54.993Z,4.77
2018-05-07T07:40:01.270Z,4.80
2018-05-07T07:43:07.480Z,4.10
2018-05-07T07:46:13.691Z,5.00
2018-05-07T07:49:18.753Z,4.00
2018-05-07T07:52:25.221Z,4.60
2018-05-07T07:55:31.358Z,4.93
2018-05-07T07:58:37.584Z,4.80
2018-05-07T08:01:43.458Z,4.67
2018-05-07T08:04:49.402Z,5.20
2018-05-07T08:07:55.437Z,5.03
2018-05-07T08:11:01.639Z,4.30
2018-05-07T08:14:07.750Z,5.07
2018-05-07T08:17:13.679Z,4.60
2018-05-07T08:20:19.741Z,5.13
2018-05-07T08:23:24.931Z,4.70
2018-05-07T08:26:31.093Z,4.40
2018-05-07T08:29:37.174Z,4.43
2018-05-07T08:32:43.228Z,4.57
2018-05-07T08:35:49.306Z,4.80
2018-05-07T08:38:55.282Z,5.23
2018-05-07T08:42:01.550Z,5.00
2018-05-07T08:45:07.645Z,5.30
2018-05-07T08:48:12.970Z,5.40
2018-05-07T08:51:18.110Z,4.87
2018-05-07T08:54:24.181Z,5.10
2018-05-07T08:57:30.177Z,5.77
2018-05-07T09:00:36.427Z,4.70
2018-05-07T09:03:42.479Z,4.07
2018-05-07T09:06:47.681Z,4.90
2018-05-07T09:09:53.919Z,4.50
2018-05-07T09:12:59.340Z,5.03
2018-05-07T09:16:05.681Z,5.40
2018-05-07T09:19:11.544Z,4.30
2018-05-07T09:22:17.628Z,4.57
2018-05-07T09:25:23.545Z,4.20
2018-05-07T09:28:29.708Z,4.53
2018-05-07T09:31:36.388Z,4.07
2018-05-07T09:34:42.119Z,4.53
2018-05-07T09:37:47.997Z,4.50
2018-05-07T09:40:53.140Z,4.87
2018-05-07T09:43:59.327Z,4.10
2018-05-07T09:47:05.236Z,4.17
2018-05-07T09:50:10.329Z,4.37
2018-05-07T09:53:16.265Z,5.10
2018-05-07T09:56:21.814Z,4.43
2018-05-07T09:59:28.108Z,4.63
2018-05-07T10:02:34.149Z,4.33
2018-05-07T10:05:41.187Z,4.90
2018-05-07T10:08:47.721Z,4.30
2018-05-07T10:11:53.572Z,4.40
2018-05-07T10:14:59.637Z,4.00
2018-05-07T10:18:05.714Z,4.63
2018-05-07T10:21:11.832Z,4.93
2018-05-07T10:24:17.130Z,4.50
2018-05-07T10:27:23.223Z,4.30
2018-05-07T10:30:29.591Z,5.10
2018-05-07T10:33:35.638Z,5.03
2018-05-07T10:36:41.457Z,4.10
2018-05-07T10:39:47.427Z,4.67
2018-05-07T10:42:53.512Z,5.37
2018-05-07T10:45:59.364Z,4.87
2018-05-07T10:49:05.551Z,4.43
2018-05-07T10:52:11.377Z,4.10
2018-05-07T10:55:17.625Z,4.80
2018-05-07T10:58:23.690Z,4.80
2018-05-07T11:01:29.723Z,5.60
2018-05-07T11:04:35.913Z,4.73
2018-05-07T11:07:41.988Z,4.53
2018-05-07T11:10:47.944Z,4.83
2018-05-07T11:13:53.036Z,4.30
2018-05-07T11:16:59.132Z,4.17
2018-05-07T11:20:04.236Z,4.67
2018-05-07T11:23:10.350Z,5.30
2018-05-07T11:26:16.442Z,4.60
2018-05-07T11:29:21.815Z,4.70
2018-05-07T11:32:27.864Z,4.43
2018-05-07T11:35:33.226Z,4.63
2018-05-07T11:38:39.380Z,5.40
2018-05-07T11:41:45.360Z,4.70
2018-05-07T11:44:51.477Z,5.47
2018-05-07T11:47:57.480Z,4.60
2018-05-07T11:51:03.543Z,4.50
2018-05-07T11:54:10.705Z,4.57
2018-05-07T11:57:16.509Z,5.37
2018-05-07T12:00:22.801Z,4.27
2018-05-07T12:03:29.145Z,4.70
2018-05-07T12:06:35.304Z,5.40
2018-05-07T12:09:41.286Z,4.07
2018-05-07T12:12:46.927Z,4.83
2018-05-07T12:15:53.156Z,4.93
2018-05-07T12:18:59.315Z,4.10
2018-05-07T12:22:05.779Z,4.90
2018-05-07T12:25:11.051Z,4.83
2018-05-07T12:28:17.145Z,4.93
2018-05-07T12:31:23.149Z,4.40
2018-05-07T12:34:28.869Z,4.40
2018-05-07T12:37:34.953Z,4.63
2018-05-07T12:40:41.241Z,4.23
2018-05-07T12:43:46.424Z,4.27
2018-05-07T12:46:52.283Z,4.30
2018-05-07T12:49:58.488Z,4.23
2018-05-07T12:53:04.577Z,4.70
2018-05-07T12:56:10.620Z,4.10
2018-05-07T12:59:16.543Z,3.97
2018-05-07T13:02:21.944Z,4.47
2018-05-07T13:05:27.805Z,4.80
2018-05-07T13:08:34.643Z,4.77
2018-05-07T13:11:40.715Z,4.30
2018-05-07T13:14:47.656Z,4.47
2018-05-07T13:17:53.565Z,4.63
2018-05-07T13:20:59.772Z,4.53
2018-05-07T13:24:05.950Z,4.47
2018-05-07T13:27:11.864Z,4.20
2018-05-07T13:30:17.257Z,4.53
2018-05-07T13:33:22.501Z,4.60
2018-05-07T13:36:27.699Z,4.33
2018-05-07T13:39:33.613Z,3.70
2018-05-07T13:42:40.618Z,4.10
2018-05-07T13:45:46.758Z,4.37
2018-05-07T13:48:52.902Z,4.07
2018-05-07T13:51:58.926Z,3.43
2018-05-07T13:55:05.210Z,4.60
2018-05-07T13:58:11.308Z,5.03
2018-05-07T14:01:17.419Z,4.13
2018-05-07T14:04:23.423Z,4.93
2018-05-07T14:07:29.643Z,4.50
2018-05-07T14:10:36.524Z,4.30
2018-05-07T14:13:42.601Z,4.00
2018-05-07T14:16:48.586Z,4.60
2018-05-07T14:19:54.671Z,3.67
2018-05-07T14:23:00.591Z,4.00
2018-05-07T14:26:06.849Z,4.20
2018-05-07T14:29:12.900Z,4.23
2018-05-07T14:32:18.869Z,4.53
2018-05-07T14:35:24.746Z,3.33
2018-05-07T14:38:31.181Z,3.90
2018-05-07T14:41:37.335Z,4.03
2018-05-07T14:44:43.452Z,4.30
2018-05-07T14:47:49.518Z,3.73
2018-05-07T14:50:55.793Z,4.53
2018-05-07T14:54:01.649Z,3.27
2018-05-07T14:57:07.562Z,3.70
2018-05-07T15:00:12.816Z,3.67
2018-05-07T15:03:18.891Z,3.33
2018-05-07T15:06:25.008Z,4.20
2018-05-07T15:09:31.074Z,3.73
2018-05-07T15:12:37.147Z,3.80
2018-05-07T15:15:43.127Z,4.03
2018-05-07T15:18:50.365Z,5.50
2018-05-07T15:21:56.217Z,3.63
2018-05-07T15:25:08.039Z,4.07
2018-05-07T15:28:14.123Z,4.10
2018-05-07T15:31:20.205Z,3.67
2018-05-07T15:34:27.234Z,3.60
2018-05-07T15:37:33.263Z,4.00
2018-05-07T15:40:39.391Z,4.17
2018-05-07T15:43:46.407Z,3.80
2018-05-07T15:46:52.113Z,4.30
2018-05-07T15:49:58.211Z,4.70
2018-05-07T15:53:03.483Z,3.60
2018-05-07T15:56:08.714Z,3.77
2018-05-07T15:59:14.778Z,4.10
2018-05-07T16:02:19.937Z,3.40
2018-05-07T16:05:26.266Z,3.97
2018-05-07T16:08:32.005Z,4.63
2018-05-07T16:11:38.184Z,3.70
2018-05-07T16:14:44.227Z,4.40
2018-05-07T16:17:50.301Z,3.67
2018-05-07T16:20:56.247Z,4.10
2018-05-07T16:24:02.294Z,4.30
2018-05-07T16:27:08.501Z,4.20
2018-05-07T16:30:14.804Z,3.70
2018-05-07T16:33:20.852Z,3.33
2018-05-07T16:36:27.142Z,3.67
2018-05-07T16:39:33.421Z,3.40
2018-05-07T16:42:39.478Z,3.20
2018-05-07T16:45:44.795Z,3.57
2018-05-07T16:48:50.819Z,3.50
2018-05-07T16:51:57.123Z,4.23
2018-05-07T16:55:03.300Z,3.70
2018-05-07T16:58:09.155Z,3.13
2018-05-07T17:01:15.264Z,3.47
2018-05-07T17:04:20.464Z,3.57
2018-05-07T17:07:26.215Z,3.23
2018-05-07T17:10:32.433Z,3.37
2018-05-07T17:13:38.686Z,3.30
2018-05-07T17:16:45.197Z,3.60
2018-05-07T17:19:51.495Z,3.50
2018-05-07T17:22:57.385Z,4.27
2018-05-07T17:26:03.653Z,3.30
2018-05-07T17:29:09.778Z,3.20
2018-05-07T17:32:15.813Z,3.27
2018-05-07T17:35:22.068Z,3.73
2018-05-07T17:38:28.049Z,3.70
2018-05-07T17:41:34.023Z,3.40
2018-05-07T17:44:52.082Z,3.23
2018-05-07T17:48:09.868Z,3.40
2018-05-07T17:51:15.253Z,3.40
2018-05-07T17:54:21.345Z,3.07
2018-05-07T17:57:26.349Z,3.60
2018-05-07T18:00:32.939Z,3.60
2018-05-07T18:03:39.525Z,3.77
2018-05-07T18:06:45.636Z,3.20
2018-05-07T18:09:51.697Z,3.80
2018-05-07T18:12:57.866Z,3.13
2018-05-07T18:16:03.006Z,3.03
2018-05-07T18:19:09.310Z,3.53
2018-05-07T18:22:14.494Z,3.40
2018-05-07T18:25:21.097Z,3.73
2018-05-07T18:28:28.093Z,3.27
2018-05-07T18:31:33.711Z,2.80
2018-05-07T18:34:42.683Z,3.00
2018-05-07T18:37:49.507Z,3.00
2018-05-07T18:40:55.654Z,3.20
2018-05-07T18:44:01.647Z,3.87
2018-05-07T18:47:08.061Z,3.50
2018-05-07T18:50:14.008Z,3.53
2018-05-07T18:53:23.072Z,3.10
2018-05-07T18:56:29.260Z,3.03
2018-05-07T18:59:36.252Z,4.00
2018-05-07T19:02:42.343Z,3.20
2018-05-07T19:05:48.342Z,3.43
2018-05-07T19:08:54.401Z,3.33
2018-05-07T19:12:01.203Z,3.27
2018-05-07T19:15:07.365Z,2.90
2018-05-07T19:18:13.508Z,3.93
2018-05-07T19:21:19.388Z,3.23
2018-05-07T19:24:25.716Z,3.80
2018-05-07T19:27:32.103Z,3.33
2018-05-07T19:30:37.232Z,3.37
2018-05-07T19:33:43.230Z,3.30
2018-05-07T19:36:48.462Z,3.70
2018-05-07T19:39:55.823Z,3.20
2018-05-07T19:43:02.638Z,3.83
2018-05-07T19:46:08.569Z,3.73
2018-05-07T19:49:13.537Z,3.57
2018-05-07T19:52:19.446Z,3.00
2018-05-07T19:55:25.795Z,3.60
2018-05-07T19:58:31.706Z,3.37
2018-05-07T20:01:38.343Z,4.00
2018-05-07T20:04:44.151Z,3.43
2018-05-07T20:07:50.370Z,3.43
2018-05-07T20:10:56.409Z,4.37
2018-05-07T20:14:02.509Z,3.43
2018-05-07T20:17:09.634Z,3.43
2018-05-07T20:20:16.128Z,4.43
2018-05-07T20:23:22.133Z,4.27
2018-05-07T20:26:28.631Z,3.50
2018-05-07T20:29:34.822Z,4.10
2018-05-07T20:32:41.836Z,4.20
2018-05-07T20:35:48.032Z,3.27
2018-05-07T20:38:55.062Z,4.23
2018-05-07T20:42:01.306Z,3.80
2018-05-07T20:45:08.481Z,3.73
2018-05-07T20:48:14.769Z,3.87
2018-05-07T20:51:21.846Z,3.43
2018-05-07T20:54:27.852Z,4.13
2018-05-07T20:57:33.975Z,4.00
2018-05-07T21:00:40.726Z,3.57
2018-05-07T21:03:47.096Z,4.33
2018-05-07T21:06:52.856Z,3.67
2018-05-07T21:09:58.825Z,4.10
2018-05-07T21:13:04.947Z,3.93
2018-05-07T21:16:12.165Z,3.70
2018-05-07T21:19:18.660Z,4.23
2018-05-07T21:22:24.814Z,3.73
2018-05-07T21:25:32.914Z,3.97
2018-05-07T21:28:39.916Z,3.50
2018-05-07T21:31:45.806Z,3.73
2018-05-07T21:34:52.080Z,4.90
2018-05-07T21:37:58.879Z,4.20
2018-05-07T21:41:05.035Z,3.90
2018-05-07T21:44:11.848Z,4.40
2018-05-07T21:47:18.781Z,4.23
2018-05-07T21:50:25.781Z,4.33
2018-05-07T21:53:32.925Z,3.70
2018-05-07T21:56:39.338Z,4.30
2018-05-07T21:59:44.893Z,4.73
2018-05-07T22:02:50.955Z,4.00
2018-05-07T22:05:56.931Z,5.70
2018-05-07T22:09:03.044Z,4.20
2018-05-07T22:12:08.956Z,4.53
2018-05-07T22:15:15.085Z,5.80
2018-05-07T22:18:21.572Z,4.73
2018-05-07T22:21:27.507Z,4.00
2018-05-07T22:24:33.841Z,4.30
2018-05-07T22:27:39.867Z,4.57
2018-05-07T22:30:45.833Z,4.93
2018-05-07T22:33:52.001Z,4.90
2018-05-07T22:36:57.819Z,4.73
2018-05-07T22:40:04.003Z,4.90
2018-05-07T22:43:09.901Z,4.97
2018-05-07T22:46:15.886Z,5.13
2018-05-07T22:49:22.292Z,4.87
2018-05-07T22:52:28.226Z,4.40
2018-05-07T22:55:40.245Z,4.70
2018-05-07T22:58:46.316Z,5.20
2018-05-07T23:01:51.530Z,5.00
2018-05-07T23:04:56.690Z,5.77
2018-05-07T23:08:02.141Z,4.50
2018-05-07T23:11:08.349Z,5.00
2018-05-07T23:14:13.565Z,4.83
2018-05-07T23:17:19.920Z,4.83
2018-05-07T23:20:25.951Z,5.43
2018-05-07T23:23:31.607Z,4.60
2018-05-07T23:26:37.639Z,5.40
2018-05-07T23:29:43.807Z,5.90
2018-05-07T23:32:56.073Z,5.47
2018-05-07T23:36:02.114Z,5.20
2018-05-07T23:39:08.206Z,4.73
2018-05-07T23:42:15.184Z,5.00
2018-05-07T23:45:21.025Z,5.10
2018-05-07T23:48:27.952Z,6.10
2018-05-07T23:51:34.085Z,5.17
2018-05-07T23:54:39.132Z,6.20
2018-05-07T23:57:46.076Z,5.50
